sensor_id;sensor_type;location;lat;lon;timestamp;temperature;humidity
13464;DHT22;6804;48.774;9.174;2022-08-21T00:02:18;20.10;99.90
13464;DHT22;6804;48.774;9.174;2022-08-21T00:04:46;20.20;99.90
13464;DHT22;6804;48.774;9.174;2022-08-21T00:07:17;20.20;99.90
13464;DHT22;6804;48.774;9.174;2022-08-21T00:09:48;20.10;99.90
13464;DHT22;6804;48.774;9.174;2022-08-21T00:12:18;20.20;99.90
13464;DHT22;6804;48.774;9.174;2022-08-21T00:14:49;20.20;99.90
13464;DHT22;6804;48.774;9.174;2022-08-21T00:17:17;20.10;99.90
13464;DHT22;6804;48.774;9.174;2022-08-21T00:19:45;20.20;99.90
13464;DHT22;6804;48.774;9.174;2022-08-21T00:22:14;20.20;99.90
13464;DHT22;6804;48.774;9.174;2022-08-21T00:24:44;20.20;99.90
13464;DHT22;6804;48.774;9.174;2022-08-21T00:27:12;20.10;99.90
13464;DHT22;6804;48.774;9.174;2022-08-21T00:29:48;20.20;99.90
13464;DHT22;6804;48.774;9.174;2022-08-21T00:32:20;20.20;99.90
13464;DHT22;6804;48.774;9.174;2022-08-21T00:34:48;20.10;99.90
13464;DHT22;6804;48.774;9.174;2022-08-21T00:37:15;20.10;99.90
13464;DHT22;6804;48.774;9.174;2022-08-21T00:39:45;19.90;99.90
13464;DHT22;6804;48.774;9.174;2022-08-21T00:42:14;19.90;99.90
13464;DHT22;6804;48.774;9.174;2022-08-21T00:44:42;19.90;99.90
13464;DHT22;6804;48.774;9.174;2022-08-21T00:47:13;19.80;99.90
13464;DHT22;6804;48.774;9.174;2022-08-21T00:49:41;19.80;99.90
13464;DHT22;6804;48.774;9.174;2022-08-21T00:52:12;19.80;99.90
13464;DHT22;6804;48.774;9.174;2022-08-21T00:54:52;19.80;99.90
13464;DHT22;6804;48.774;9.174;2022-08-21T00:57:29;19.70;99.90
13464;DHT22;6804;48.774;9.174;2022-08-21T00:59:59;19.60;99.90
13464;DHT22;6804;48.774;9.174;2022-08-21T01:02:28;19.50;99.90
13464;DHT22;6804;48.774;9.174;2022-08-21T01:04:58;19.50;99.90
13464;DHT22;6804;48.774;9.174;2022-08-21T01:07:26;19.40;99.90
13464;DHT22;6804;48.774;9.174;2022-08-21T01:09:55;19.40;99.90
13464;DHT22;6804;48.774;9.174;2022-08-21T01:12:24;19.30;99.90
13464;DHT22;6804;48.774;9.174;2022-08-21T01:14:55;19.30;99.90
13464;DHT22;6804;48.774;9.174;2022-08-21T01:17:24;19.30;99.90
13464;DHT22;6804;48.774;9.174;2022-08-21T01:19:52;19.30;99.90
13464;DHT22;6804;48.774;9.174;2022-08-21T01:22:21;19.30;99.90
13464;DHT22;6804;48.774;9.174;2022-08-21T01:24:48;19.30;99.90
13464;DHT22;6804;48.774;9.174;2022-08-21T01:27:19;19.30;99.90
13464;DHT22;6804;48.774;9.174;2022-08-21T01:29:54;19.30;99.90
13464;DHT22;6804;48.774;9.174;2022-08-21T01:32:22;19.30;99.90
13464;DHT22;6804;48.774;9.174;2022-08-21T01:34:51;19.30;99.90
13464;DHT22;6804;48.774;9.174;2022-08-21T01:37:23;19.30;99.90
13464;DHT22;6804;48.774;9.174;2022-08-21T01:39:50;19.20;99.90
13464;DHT22;6804;48.774;9.174;2022-08-21T01:42:18;19.30;99.90
13464;DHT22;6804;48.774;9.174;2022-08-21T01:44:46;19.30;99.90
13464;DHT22;6804;48.774;9.174;2022-08-21T01:47:15;19.30;99.90
13464;DHT22;6804;48.774;9.174;2022-08-21T01:49:44;19.30;99.90
13464;DHT22;6804;48.774;9.174;2022-08-21T01:54:46;19.30;99.90
13464;DHT22;6804;48.774;9.174;2022-08-21T01:57:16;19.20;99.90
13464;DHT22;6804;48.774;9.174;2022-08-21T01:59:46;19.20;99.90
13464;DHT22;6804;48.774;9.174;2022-08-21T02:02:16;19.20;99.90
13464;DHT22;6804;48.774;9.174;2022-08-21T02:04:46;19.20;99.90
13464;DHT22;6804;48.774;9.174;2022-08-21T02:07:14;19.20;99.90
13464;DHT22;6804;48.774;9.174;2022-08-21T02:09:42;19.20;99.90
13464;DHT22;6804;48.774;9.174;2022-08-21T02:12:13;19.20;99.90
13464;DHT22;6804;48.774;9.174;2022-08-21T02:14:44;19.10;99.90
13464;DHT22;6804;48.774;9.174;2022-08-21T02:17:11;19.00;99.90
13464;DHT22;6804;48.774;9.174;2022-08-21T02:19:41;19.00;99.90
13464;DHT22;6804;48.774;9.174;2022-08-21T02:22:09;19.00;99.90
13464;DHT22;6804;48.774;9.174;2022-08-21T02:24:38;18.90;99.90
13464;DHT22;6804;48.774;9.174;2022-08-21T02:27:05;18.80;99.90
13464;DHT22;6804;48.774;9.174;2022-08-21T02:29:36;18.70;99.90
13464;DHT22;6804;48.774;9.174;2022-08-21T02:32:03;18.70;99.90
13464;DHT22;6804;48.774;9.174;2022-08-21T02:34:31;18.70;99.90
13464;DHT22;6804;48.774;9.174;2022-08-21T02:37:01;18.70;99.90
13464;DHT22;6804;48.774;9.174;2022-08-21T02:39:29;18.60;99.90
13464;DHT22;6804;48.774;9.174;2022-08-21T02:41:57;18.40;99.90
13464;DHT22;6804;48.774;9.174;2022-08-21T02:44:25;18.30;99.90
13464;DHT22;6804;48.774;9.174;2022-08-21T02:46:54;18.30;99.90
13464;DHT22;6804;48.774;9.174;2022-08-21T02:49:22;18.30;99.90
13464;DHT22;6804;48.774;9.174;2022-08-21T02:51:49;18.40;99.90
13464;DHT22;6804;48.774;9.174;2022-08-21T02:54:17;18.40;99.90
13464;DHT22;6804;48.774;9.174;2022-08-21T02:56:45;18.40;99.90
13464;DHT22;6804;48.774;9.174;2022-08-21T02:59:12;18.40;99.90
13464;DHT22;6804;48.774;9.174;2022-08-21T03:01:43;18.40;99.90
13464;DHT22;6804;48.774;9.174;2022-08-21T03:04:12;18.40;99.90
13464;DHT22;6804;48.774;9.174;2022-08-21T03:06:40;18.20;99.90
13464;DHT22;6804;48.774;9.174;2022-08-21T03:09:15;18.20;99.90
13464;DHT22;6804;48.774;9.174;2022-08-21T03:11:42;18.10;99.90
13464;DHT22;6804;48.774;9.174;2022-08-21T03:14:12;18.10;99.90
13464;DHT22;6804;48.774;9.174;2022-08-21T03:16:43;18.10;99.90
13464;DHT22;6804;48.774;9.174;2022-08-21T03:19:12;18.20;99.90
13464;DHT22;6804;48.774;9.174;2022-08-21T03:21:41;18.20;99.90
13464;DHT22;6804;48.774;9.174;2022-08-21T03:24:10;18.20;99.90
13464;DHT22;6804;48.774;9.174;2022-08-21T03:26:40;18.20;99.90
13464;DHT22;6804;48.774;9.174;2022-08-21T03:29:07;18.20;99.90
13464;DHT22;6804;48.774;9.174;2022-08-21T03:31:35;18.20;99.90
13464;DHT22;6804;48.774;9.174;2022-08-21T03:34:02;18.20;99.90
13464;DHT22;6804;48.774;9.174;2022-08-21T03:36:32;18.30;99.90
13464;DHT22;6804;48.774;9.174;2022-08-21T03:38:59;18.30;99.90
13464;DHT22;6804;48.774;9.174;2022-08-21T03:41:31;18.20;99.90
13464;DHT22;6804;48.774;9.174;2022-08-21T03:44:02;18.20;99.90
13464;DHT22;6804;48.774;9.174;2022-08-21T03:46:30;18.20;99.90
13464;DHT22;6804;48.774;9.174;2022-08-21T03:49:00;18.10;99.90
13464;DHT22;6804;48.774;9.174;2022-08-21T03:51:30;18.10;99.90
13464;DHT22;6804;48.774;9.174;2022-08-21T03:54:04;18.10;99.90
13464;DHT22;6804;48.774;9.174;2022-08-21T03:56:34;18.00;99.90
13464;DHT22;6804;48.774;9.174;2022-08-21T03:59:04;18.00;99.90
13464;DHT22;6804;48.774;9.174;2022-08-21T04:01:31;18.00;99.90
13464;DHT22;6804;48.774;9.174;2022-08-21T04:03:59;18.00;99.90
13464;DHT22;6804;48.774;9.174;2022-08-21T04:06:27;18.10;99.90
13464;DHT22;6804;48.774;9.174;2022-08-21T04:08:56;18.10;99.90
13464;DHT22;6804;48.774;9.174;2022-08-21T04:11:25;18.10;99.90
13464;DHT22;6804;48.774;9.174;2022-08-21T04:13:52;18.10;99.90
13464;DHT22;6804;48.774;9.174;2022-08-21T04:16:21;18.10;99.90
13464;DHT22;6804;48.774;9.174;2022-08-21T04:18:51;18.10;99.90
13464;DHT22;6804;48.774;9.174;2022-08-21T04:21:21;18.10;99.90
13464;DHT22;6804;48.774;9.174;2022-08-21T04:23:54;18.10;99.90
13464;DHT22;6804;48.774;9.174;2022-08-21T04:26:25;18.00;99.90
13464;DHT22;6804;48.774;9.174;2022-08-21T04:28:52;18.00;99.90
13464;DHT22;6804;48.774;9.174;2022-08-21T04:31:21;18.00;99.90
13464;DHT22;6804;48.774;9.174;2022-08-21T04:33:51;17.90;99.90
13464;DHT22;6804;48.774;9.174;2022-08-21T04:36:21;17.80;99.90
13464;DHT22;6804;48.774;9.174;2022-08-21T04:38:48;17.80;99.90
13464;DHT22;6804;48.774;9.174;2022-08-21T04:41:18;17.80;99.90
13464;DHT22;6804;48.774;9.174;2022-08-21T04:43:47;17.80;99.90
13464;DHT22;6804;48.774;9.174;2022-08-21T04:46:17;17.80;99.90
13464;DHT22;6804;48.774;9.174;2022-08-21T04:48:44;17.90;99.90
13464;DHT22;6804;48.774;9.174;2022-08-21T04:51:16;17.80;99.90
13464;DHT22;6804;48.774;9.174;2022-08-21T04:53:47;17.80;99.90
13464;DHT22;6804;48.774;9.174;2022-08-21T04:56:23;17.80;99.90
13464;DHT22;6804;48.774;9.174;2022-08-21T04:58:55;17.90;99.90
13464;DHT22;6804;48.774;9.174;2022-08-21T05:01:25;17.90;99.90
13464;DHT22;6804;48.774;9.174;2022-08-21T05:03:58;18.00;99.90
13464;DHT22;6804;48.774;9.174;2022-08-21T05:06:28;18.10;99.90
13464;DHT22;6804;48.774;9.174;2022-08-21T05:08:58;18.30;99.90
13464;DHT22;6804;48.774;9.174;2022-08-21T05:11:26;18.50;99.90
13464;DHT22;6804;48.774;9.174;2022-08-21T05:13:56;18.60;99.90
13464;DHT22;6804;48.774;9.174;2022-08-21T05:16:24;18.80;99.90
13464;DHT22;6804;48.774;9.174;2022-08-21T05:18:52;19.00;99.90
13464;DHT22;6804;48.774;9.174;2022-08-21T05:21:23;19.20;99.90
13464;DHT22;6804;48.774;9.174;2022-08-21T05:23:51;19.30;99.90
13464;DHT22;6804;48.774;9.174;2022-08-21T05:26:18;19.50;99.90
13464;DHT22;6804;48.774;9.174;2022-08-21T05:28:46;19.60;99.90
13464;DHT22;6804;48.774;9.174;2022-08-21T05:31:15;19.70;99.90
13464;DHT22;6804;48.774;9.174;2022-08-21T05:33:43;19.90;99.90
13464;DHT22;6804;48.774;9.174;2022-08-21T05:36:13;20.00;99.90
13464;DHT22;6804;48.774;9.174;2022-08-21T05:38:41;20.20;99.90
13464;DHT22;6804;48.774;9.174;2022-08-21T05:41:09;20.30;99.90
13464;DHT22;6804;48.774;9.174;2022-08-21T05:43:37;20.40;99.90
13464;DHT22;6804;48.774;9.174;2022-08-21T05:46:08;20.60;99.90
13464;DHT22;6804;48.774;9.174;2022-08-21T05:48:36;20.60;99.90
13464;DHT22;6804;48.774;9.174;2022-08-21T05:51:06;20.70;99.90
13464;DHT22;6804;48.774;9.174;2022-08-21T05:53:34;20.70;99.90
13464;DHT22;6804;48.774;9.174;2022-08-21T05:56:02;20.90;99.90
13464;DHT22;6804;48.774;9.174;2022-08-21T05:58:32;21.10;99.90
13464;DHT22;6804;48.774;9.174;2022-08-21T06:01:04;21.20;99.90
13464;DHT22;6804;48.774;9.174;2022-08-21T06:03:34;21.40;99.90
13464;DHT22;6804;48.774;9.174;2022-08-21T06:06:04;21.60;99.90
13464;DHT22;6804;48.774;9.174;2022-08-21T06:08:32;21.80;99.90
13464;DHT22;6804;48.774;9.174;2022-08-21T06:11:01;21.90;99.90
13464;DHT22;6804;48.774;9.174;2022-08-21T06:13:29;22.10;99.90
13464;DHT22;6804;48.774;9.174;2022-08-21T06:16:08;22.20;99.90
13464;DHT22;6804;48.774;9.174;2022-08-21T06:18:36;22.30;99.80
13464;DHT22;6804;48.774;9.174;2022-08-21T06:21:06;22.40;99.50
13464;DHT22;6804;48.774;9.174;2022-08-21T06:23:34;22.50;99.20
13464;DHT22;6804;48.774;9.174;2022-08-21T06:26:09;22.60;98.70
13464;DHT22;6804;48.774;9.174;2022-08-21T06:28:37;22.80;98.50
13464;DHT22;6804;48.774;9.174;2022-08-21T06:31:11;22.90;98.30
13464;DHT22;6804;48.774;9.174;2022-08-21T06:33:39;23.00;98.10
13464;DHT22;6804;48.774;9.174;2022-08-21T06:36:08;23.30;97.80
13464;DHT22;6804;48.774;9.174;2022-08-21T06:38:35;23.40;97.40
13464;DHT22;6804;48.774;9.174;2022-08-21T06:41:03;23.40;97.10
13464;DHT22;6804;48.774;9.174;2022-08-21T06:43:31;23.40;97.00
13464;DHT22;6804;48.774;9.174;2022-08-21T06:45:58;23.50;97.00
13464;DHT22;6804;48.774;9.174;2022-08-21T06:48:26;23.70;96.70
13464;DHT22;6804;48.774;9.174;2022-08-21T06:50:53;23.70;96.10
13464;DHT22;6804;48.774;9.174;2022-08-21T06:53:23;23.30;96.70
13464;DHT22;6804;48.774;9.174;2022-08-21T06:55:50;23.00;97.10
13464;DHT22;6804;48.774;9.174;2022-08-21T06:58:17;23.10;96.60
13464;DHT22;6804;48.774;9.174;2022-08-21T07:00:48;22.90;97.80
13464;DHT22;6804;48.774;9.174;2022-08-21T07:03:19;23.00;97.20
13464;DHT22;6804;48.774;9.174;2022-08-21T07:05:47;23.20;97.00
13464;DHT22;6804;48.774;9.174;2022-08-21T07:08:14;23.10;96.70
13464;DHT22;6804;48.774;9.174;2022-08-21T07:10:46;23.10;96.70
13464;DHT22;6804;48.774;9.174;2022-08-21T07:13:15;23.30;96.80
13464;DHT22;6804;48.774;9.174;2022-08-21T07:15:46;23.30;95.70
13464;DHT22;6804;48.774;9.174;2022-08-21T07:18:17;23.20;96.20
13464;DHT22;6804;48.774;9.174;2022-08-21T07:20:45;23.10;96.40
13464;DHT22;6804;48.774;9.174;2022-08-21T07:23:18;23.20;96.30
13464;DHT22;6804;48.774;9.174;2022-08-21T07:25:50;23.30;97.20
13464;DHT22;6804;48.774;9.174;2022-08-21T07:28:18;23.50;95.90
13464;DHT22;6804;48.774;9.174;2022-08-21T07:30:45;23.70;95.50
13464;DHT22;6804;48.774;9.174;2022-08-21T07:33:13;23.70;95.70
13464;DHT22;6804;48.774;9.174;2022-08-21T07:35:43;23.80;95.50
13464;DHT22;6804;48.774;9.174;2022-08-21T07:38:13;24.00;95.30
13464;DHT22;6804;48.774;9.174;2022-08-21T07:40:46;24.10;94.70
13464;DHT22;6804;48.774;9.174;2022-08-21T07:43:19;23.90;95.00
13464;DHT22;6804;48.774;9.174;2022-08-21T07:45:48;23.70;95.10
13464;DHT22;6804;48.774;9.174;2022-08-21T07:48:19;23.50;95.30
13464;DHT22;6804;48.774;9.174;2022-08-21T07:50:47;23.40;95.70
13464;DHT22;6804;48.774;9.174;2022-08-21T07:53:16;23.30;96.00
13464;DHT22;6804;48.774;9.174;2022-08-21T07:55:44;23.30;96.90
13464;DHT22;6804;48.774;9.174;2022-08-21T07:58:13;23.60;96.60
13464;DHT22;6804;48.774;9.174;2022-08-21T08:00:44;23.70;95.80
13464;DHT22;6804;48.774;9.174;2022-08-21T08:03:14;23.50;95.90
13464;DHT22;6804;48.774;9.174;2022-08-21T08:05:42;23.60;96.10
13464;DHT22;6804;48.774;9.174;2022-08-21T08:08:09;23.70;96.20
13464;DHT22;6804;48.774;9.174;2022-08-21T08:10:37;23.80;96.00
13464;DHT22;6804;48.774;9.174;2022-08-21T08:13:05;24.00;96.80
13464;DHT22;6804;48.774;9.174;2022-08-21T08:15:33;24.30;94.80
13464;DHT22;6804;48.774;9.174;2022-08-21T08:18:02;24.20;95.10
13464;DHT22;6804;48.774;9.174;2022-08-21T08:20:29;24.40;94.50
13464;DHT22;6804;48.774;9.174;2022-08-21T08:22:57;24.60;95.60
13464;DHT22;6804;48.774;9.174;2022-08-21T08:25:29;25.00;93.90
13464;DHT22;6804;48.774;9.174;2022-08-21T08:28:00;25.30;93.10
13464;DHT22;6804;48.774;9.174;2022-08-21T08:30:27;25.50;93.10
13464;DHT22;6804;48.774;9.174;2022-08-21T08:32:55;25.60;93.00
13464;DHT22;6804;48.774;9.174;2022-08-21T08:35:27;25.80;91.50
13464;DHT22;6804;48.774;9.174;2022-08-21T08:37:55;25.80;92.00
13464;DHT22;6804;48.774;9.174;2022-08-21T08:40:36;26.00;91.00
13464;DHT22;6804;48.774;9.174;2022-08-21T08:43:05;25.80;91.40
13464;DHT22;6804;48.774;9.174;2022-08-21T08:45:37;25.50;91.20
13464;DHT22;6804;48.774;9.174;2022-08-21T08:48:12;25.40;91.50
13464;DHT22;6804;48.774;9.174;2022-08-21T08:50:47;25.50;91.40
13464;DHT22;6804;48.774;9.174;2022-08-21T08:53:25;25.60;91.30
13464;DHT22;6804;48.774;9.174;2022-08-21T08:56:01;25.80;91.90
13464;DHT22;6804;48.774;9.174;2022-08-21T08:58:32;26.40;91.10
13464;DHT22;6804;48.774;9.174;2022-08-21T09:01:03;26.80;89.80
13464;DHT22;6804;48.774;9.174;2022-08-21T09:03:32;27.10;86.30
13464;DHT22;6804;48.774;9.174;2022-08-21T09:06:07;27.40;85.90
13464;DHT22;6804;48.774;9.174;2022-08-21T09:08:46;27.60;83.80
13464;DHT22;6804;48.774;9.174;2022-08-21T09:11:25;27.00;83.40
13464;DHT22;6804;48.774;9.174;2022-08-21T09:14:04;26.60;84.30
13464;DHT22;6804;48.774;9.174;2022-08-21T09:16:40;26.00;85.00
13464;DHT22;6804;48.774;9.174;2022-08-21T09:19:22;25.80;86.60
13464;DHT22;6804;48.774;9.174;2022-08-21T09:22:03;26.00;87.20
13464;DHT22;6804;48.774;9.174;2022-08-21T09:24:44;26.50;86.60
13464;DHT22;6804;48.774;9.174;2022-08-21T09:27:20;26.90;85.30
13464;DHT22;6804;48.774;9.174;2022-08-21T09:29:53;27.10;81.40
13464;DHT22;6804;48.774;9.174;2022-08-21T09:32:25;26.50;83.20
13464;DHT22;6804;48.774;9.174;2022-08-21T09:35:07;26.20;85.20
13464;DHT22;6804;48.774;9.174;2022-08-21T09:37:48;26.50;86.40
13464;DHT22;6804;48.774;9.174;2022-08-21T09:40:29;27.00;83.40
13464;DHT22;6804;48.774;9.174;2022-08-21T09:42:59;27.20;83.70
13464;DHT22;6804;48.774;9.174;2022-08-21T09:45:27;27.10;83.20
13464;DHT22;6804;48.774;9.174;2022-08-21T09:48:09;27.20;82.30
13464;DHT22;6804;48.774;9.174;2022-08-21T09:50:36;26.60;82.50
13464;DHT22;6804;48.774;9.174;2022-08-21T09:53:13;26.60;83.60
13464;DHT22;6804;48.774;9.174;2022-08-21T09:55:49;26.60;81.60
13464;DHT22;6804;48.774;9.174;2022-08-21T09:58:36;26.50;83.60
13464;DHT22;6804;48.774;9.174;2022-08-21T10:01:05;26.40;81.40
13464;DHT22;6804;48.774;9.174;2022-08-21T10:03:33;26.00;82.80
13464;DHT22;6804;48.774;9.174;2022-08-21T10:06:04;26.10;82.70
13464;DHT22;6804;48.774;9.174;2022-08-21T10:08:37;26.40;83.80
13464;DHT22;6804;48.774;9.174;2022-08-21T10:11:07;26.60;81.70
13464;DHT22;6804;48.774;9.174;2022-08-21T10:13:45;26.40;82.20
13464;DHT22;6804;48.774;9.174;2022-08-21T10:16:28;26.70;83.00
13464;DHT22;6804;48.774;9.174;2022-08-21T10:19:15;27.00;81.00
13464;DHT22;6804;48.774;9.174;2022-08-21T10:21:59;27.30;80.80
13464;DHT22;6804;48.774;9.174;2022-08-21T10:24:31;27.60;78.70
13464;DHT22;6804;48.774;9.174;2022-08-21T10:27:08;27.70;78.70
13464;DHT22;6804;48.774;9.174;2022-08-21T10:29:47;28.00;79.60
13464;DHT22;6804;48.774;9.174;2022-08-21T10:32:29;27.50;77.30
13464;DHT22;6804;48.774;9.174;2022-08-21T10:35:08;26.50;79.50
13464;DHT22;6804;48.774;9.174;2022-08-21T10:37:48;25.90;82.00
13464;DHT22;6804;48.774;9.174;2022-08-21T10:40:27;25.80;81.90
13464;DHT22;6804;48.774;9.174;2022-08-21T10:43:07;25.70;81.80
13464;DHT22;6804;48.774;9.174;2022-08-21T10:45:50;25.70;82.40
13464;DHT22;6804;48.774;9.174;2022-08-21T10:48:25;25.80;82.20
13464;DHT22;6804;48.774;9.174;2022-08-21T10:50:59;25.80;82.00
13464;DHT22;6804;48.774;9.174;2022-08-21T10:53:40;26.00;82.70
13464;DHT22;6804;48.774;9.174;2022-08-21T10:56:17;26.40;81.80
13464;DHT22;6804;48.774;9.174;2022-08-21T10:58:53;27.00;79.70
13464;DHT22;6804;48.774;9.174;2022-08-21T11:01:27;27.30;79.30
13464;DHT22;6804;48.774;9.174;2022-08-21T11:04:08;27.10;78.80
13464;DHT22;6804;48.774;9.174;2022-08-21T11:06:46;27.20;78.40
13464;DHT22;6804;48.774;9.174;2022-08-21T11:09:20;27.20;78.10
13464;DHT22;6804;48.774;9.174;2022-08-21T11:11:55;27.40;78.60
13464;DHT22;6804;48.774;9.174;2022-08-21T11:14:31;27.40;76.40
13464;DHT22;6804;48.774;9.174;2022-08-21T11:17:07;27.40;77.30
13464;DHT22;6804;48.774;9.174;2022-08-21T11:19:39;27.50;77.30
13464;DHT22;6804;48.774;9.174;2022-08-21T11:22:16;27.70;77.60
13464;DHT22;6804;48.774;9.174;2022-08-21T11:24:54;27.80;76.20
13464;DHT22;6804;48.774;9.174;2022-08-21T11:27:28;28.00;75.80
13464;DHT22;6804;48.774;9.174;2022-08-21T11:30:00;28.00;75.80
13464;DHT22;6804;48.774;9.174;2022-08-21T11:32:52;28.00;75.10
13464;DHT22;6804;48.774;9.174;2022-08-21T11:35:31;28.10;73.90
13464;DHT22;6804;48.774;9.174;2022-08-21T11:41:13;27.50;76.00
13464;DHT22;6804;48.774;9.174;2022-08-21T11:43:48;27.20;76.40
13464;DHT22;6804;48.774;9.174;2022-08-21T11:46:35;27.20;77.40
13464;DHT22;6804;48.774;9.174;2022-08-21T11:49:33;27.40;77.10
13464;DHT22;6804;48.774;9.174;2022-08-21T11:52:11;27.80;76.80
13464;DHT22;6804;48.774;9.174;2022-08-21T11:54:47;28.20;74.00
13464;DHT22;6804;48.774;9.174;2022-08-21T11:57:21;28.20;73.70
13464;DHT22;6804;48.774;9.174;2022-08-21T11:59:57;28.10;73.10
13464;DHT22;6804;48.774;9.174;2022-08-21T12:02:29;27.60;73.70
13464;DHT22;6804;48.774;9.174;2022-08-21T12:05:02;26.90;74.70
13464;DHT22;6804;48.774;9.174;2022-08-21T12:07:34;26.70;76.20
13464;DHT22;6804;48.774;9.174;2022-08-21T12:10:06;26.80;76.90
13464;DHT22;6804;48.774;9.174;2022-08-21T12:12:36;27.10;74.80
13464;DHT22;6804;48.774;9.174;2022-08-21T12:15:26;27.10;74.50
13464;DHT22;6804;48.774;9.174;2022-08-21T12:18:01;27.00;76.20
13464;DHT22;6804;48.774;9.174;2022-08-21T12:20:56;27.00;76.00
13464;DHT22;6804;48.774;9.174;2022-08-21T12:23:29;27.30;75.30
13464;DHT22;6804;48.774;9.174;2022-08-21T12:26:03;27.40;73.40
13464;DHT22;6804;48.774;9.174;2022-08-21T12:28:39;27.40;72.80
13464;DHT22;6804;48.774;9.174;2022-08-21T12:31:19;27.40;74.50
13464;DHT22;6804;48.774;9.174;2022-08-21T12:33:53;27.80;72.70
13464;DHT22;6804;48.774;9.174;2022-08-21T12:36:39;28.20;71.70
13464;DHT22;6804;48.774;9.174;2022-08-21T12:39:19;28.50;70.40
13464;DHT22;6804;48.774;9.174;2022-08-21T12:41:52;28.70;70.40
13464;DHT22;6804;48.774;9.174;2022-08-21T12:44:28;28.50;69.20
13464;DHT22;6804;48.774;9.174;2022-08-21T12:47:11;28.40;70.20
13464;DHT22;6804;48.774;9.174;2022-08-21T12:49:49;28.10;70.10
13464;DHT22;6804;48.774;9.174;2022-08-21T12:52:22;28.00;70.70
13464;DHT22;6804;48.774;9.174;2022-08-21T12:54:57;28.00;69.80
13464;DHT22;6804;48.774;9.174;2022-08-21T12:57:29;28.00;69.80
13464;DHT22;6804;48.774;9.174;2022-08-21T12:59:58;28.00;70.90
13464;DHT22;6804;48.774;9.174;2022-08-21T13:02:31;28.10;69.70
13464;DHT22;6804;48.774;9.174;2022-08-21T13:05:03;27.90;71.10
13464;DHT22;6804;48.774;9.174;2022-08-21T13:07:35;28.00;71.50
13464;DHT22;6804;48.774;9.174;2022-08-21T13:10:13;28.20;71.20
13464;DHT22;6804;48.774;9.174;2022-08-21T13:12:48;28.50;70.30
13464;DHT22;6804;48.774;9.174;2022-08-21T13:15:24;28.70;69.40
13464;DHT22;6804;48.774;9.174;2022-08-21T13:17:54;28.80;69.30
13464;DHT22;6804;48.774;9.174;2022-08-21T13:20:30;28.80;69.00
13464;DHT22;6804;48.774;9.174;2022-08-21T13:22:59;28.70;68.10
13464;DHT22;6804;48.774;9.174;2022-08-21T13:25:29;28.50;68.80
13464;DHT22;6804;48.774;9.174;2022-08-21T13:28:00;28.70;69.00
13464;DHT22;6804;48.774;9.174;2022-08-21T13:30:28;28.60;68.70
13464;DHT22;6804;48.774;9.174;2022-08-21T13:32:59;28.70;68.60
13464;DHT22;6804;48.774;9.174;2022-08-21T13:35:34;28.70;67.80
13464;DHT22;6804;48.774;9.174;2022-08-21T13:38:09;28.70;67.40
13464;DHT22;6804;48.774;9.174;2022-08-21T13:40:44;28.70;68.10
13464;DHT22;6804;48.774;9.174;2022-08-21T13:43:14;28.80;66.70
13464;DHT22;6804;48.774;9.174;2022-08-21T13:45:47;28.90;67.40
13464;DHT22;6804;48.774;9.174;2022-08-21T13:48:21;29.10;66.50
13464;DHT22;6804;48.774;9.174;2022-08-21T13:50:50;29.10;66.50
13464;DHT22;6804;48.774;9.174;2022-08-21T13:53:26;29.20;66.60
13464;DHT22;6804;48.774;9.174;2022-08-21T13:55:59;29.40;66.20
13464;DHT22;6804;48.774;9.174;2022-08-21T13:58:30;29.40;65.00
13464;DHT22;6804;48.774;9.174;2022-08-21T14:01:02;29.40;65.40
13464;DHT22;6804;48.774;9.174;2022-08-21T14:03:38;29.40;64.90
13464;DHT22;6804;48.774;9.174;2022-08-21T14:06:12;29.50;65.60
13464;DHT22;6804;48.774;9.174;2022-08-21T14:08:50;29.70;64.60
13464;DHT22;6804;48.774;9.174;2022-08-21T14:11:19;29.70;64.10
13464;DHT22;6804;48.774;9.174;2022-08-21T14:14:00;29.30;63.60
13464;DHT22;6804;48.774;9.174;2022-08-21T14:16:42;28.70;66.00
13464;DHT22;6804;48.774;9.174;2022-08-21T14:19:24;28.80;65.30
13464;DHT22;6804;48.774;9.174;2022-08-21T14:21:52;28.90;66.40
13464;DHT22;6804;48.774;9.174;2022-08-21T14:24:29;29.00;65.10
13464;DHT22;6804;48.774;9.174;2022-08-21T14:27:02;29.00;64.80
13464;DHT22;6804;48.774;9.174;2022-08-21T14:29:34;29.00;65.50
13464;DHT22;6804;48.774;9.174;2022-08-21T14:32:10;29.20;65.10
13464;DHT22;6804;48.774;9.174;2022-08-21T14:34:45;29.20;64.20
13464;DHT22;6804;48.774;9.174;2022-08-21T14:37:12;29.10;64.10
13464;DHT22;6804;48.774;9.174;2022-08-21T14:39:43;29.20;64.40
13464;DHT22;6804;48.774;9.174;2022-08-21T14:42:12;29.20;63.60
13464;DHT22;6804;48.774;9.174;2022-08-21T14:44:40;29.00;63.50
13464;DHT22;6804;48.774;9.174;2022-08-21T14:47:11;28.90;64.50
13464;DHT22;6804;48.774;9.174;2022-08-21T14:49:39;28.60;64.20
13464;DHT22;6804;48.774;9.174;2022-08-21T14:52:12;28.50;65.60
13464;DHT22;6804;48.774;9.174;2022-08-21T14:54:40;28.60;65.40
13464;DHT22;6804;48.774;9.174;2022-08-21T14:57:10;28.70;65.00
13464;DHT22;6804;48.774;9.174;2022-08-21T14:59:39;28.80;64.40
13464;DHT22;6804;48.774;9.174;2022-08-21T15:02:10;29.00;64.00
13464;DHT22;6804;48.774;9.174;2022-08-21T15:04:41;29.10;63.90
13464;DHT22;6804;48.774;9.174;2022-08-21T15:07:11;29.20;63.60
13464;DHT22;6804;48.774;9.174;2022-08-21T15:09:39;29.30;63.60
13464;DHT22;6804;48.774;9.174;2022-08-21T15:12:08;29.40;63.60
13464;DHT22;6804;48.774;9.174;2022-08-21T15:14:39;29.50;62.70
13464;DHT22;6804;48.774;9.174;2022-08-21T15:17:12;29.40;62.30
13464;DHT22;6804;48.774;9.174;2022-08-21T15:19:39;29.40;62.30
13464;DHT22;6804;48.774;9.174;2022-08-21T15:22:10;29.00;63.00
13464;DHT22;6804;48.774;9.174;2022-08-21T15:24:42;28.80;63.10
13464;DHT22;6804;48.774;9.174;2022-08-21T15:27:13;28.70;63.10
13464;DHT22;6804;48.774;9.174;2022-08-21T15:29:43;28.60;62.40
13464;DHT22;6804;48.774;9.174;2022-08-21T15:32:26;28.60;63.00
13464;DHT22;6804;48.774;9.174;2022-08-21T15:34:55;28.60;62.80
13464;DHT22;6804;48.774;9.174;2022-08-21T15:37:24;28.60;62.80
13464;DHT22;6804;48.774;9.174;2022-08-21T15:39:54;28.80;62.60
13464;DHT22;6804;48.774;9.174;2022-08-21T15:42:23;28.90;62.80
13464;DHT22;6804;48.774;9.174;2022-08-21T15:44:54;29.00;62.50
13464;DHT22;6804;48.774;9.174;2022-08-21T15:47:27;29.10;62.40
13464;DHT22;6804;48.774;9.174;2022-08-21T15:49:56;29.10;61.70
13464;DHT22;6804;48.774;9.174;2022-08-21T15:52:25;29.10;61.90
13464;DHT22;6804;48.774;9.174;2022-08-21T15:54:54;29.10;61.00
13464;DHT22;6804;48.774;9.174;2022-08-21T15:57:25;29.10;61.00
13464;DHT22;6804;48.774;9.174;2022-08-21T15:59:57;29.10;61.40
13464;DHT22;6804;48.774;9.174;2022-08-21T16:02:31;29.00;61.20
13464;DHT22;6804;48.774;9.174;2022-08-21T16:05:02;29.00;60.30
13464;DHT22;6804;48.774;9.174;2022-08-21T16:07:30;28.70;61.00
13464;DHT22;6804;48.774;9.174;2022-08-21T16:10:05;28.40;61.30
13464;DHT22;6804;48.774;9.174;2022-08-21T16:12:37;28.30;61.70
13464;DHT22;6804;48.774;9.174;2022-08-21T16:15:10;28.20;61.90
13464;DHT22;6804;48.774;9.174;2022-08-21T16:17:43;28.00;61.90
13464;DHT22;6804;48.774;9.174;2022-08-21T16:20:36;27.80;62.30